| time (UTC) | temp F | wind direction | speed knots | gust knots | rain 1hr in | rain 24hr in | rain mn in | humidity % | barometer mb |
| 20260509212607 | 55 | 236 | 2.6 | 4.3 | 0.00 | 0.47 | 0.47 | 96 | 1009.6 |
| 20260509212104 | 55 | 186 | 1.7 | 1.7 | 0.00 | 0.47 | 0.47 | 96 | 1009.6 |
| 20260509211600 | 54 | 220 | 1.7 | 1.7 | 0.00 | 0.47 | 0.47 | 96 | 1009.6 |
| 20260509211057 | 54 | 218 | 1.7 | 1.7 | 0.00 | 0.47 | 0.47 | 97 | 1009.6 |
| 20260509210553 | 54 | 239 | 2.6 | 2.6 | 0.01 | 0.47 | 0.47 | 98 | 1009.6 |
| 20260509210050 | 53 | 237 | 1.7 | 1.7 | 0.01 | 0.47 | 0.47 | 98 | 1009.6 |
| 20260509205544 | 53 | 227 | 4.3 | 4.3 | 0.01 | 0.47 | 0.47 | 98 | 1009.6 |
| 20260509205040 | 53 | 218 | 1.7 | 1.7 | 0.01 | 0.47 | 0.47 | 98 | 1009.6 |
| 20260509204536 | 53 | 217 | 1.7 | 1.7 | 0.01 | 0.47 | 0.47 | 98 | 1009.6 |
| 20260509204032 | 53 | 195 | 1.7 | 1.7 | 0.01 | 0.47 | 0.47 | 98 | 1009.6 |
| 20260509203528 | 53 | 225 | 3.5 | 4.3 | 0.01 | 0.47 | 0.47 | 98 | 1009.6 |
| 20260509203027 | 53 | 241 | 1.7 | 1.7 | 0.01 | 0.47 | 0.47 | 99 | 1009.6 |
| 20260509202521 | 53 | 244 | 0.0 | 0.0 | 0.01 | 0.47 | 0.47 | 98 | 1009.6 |
| 20260509202017 | 53 | 235 | 1.7 | 3.5 | 0.01 | 0.47 | 0.47 | 98 | 1009.6 |
| 20260509201512 | 53 | 248 | 4.3 | 4.3 | 0.01 | 0.47 | 0.47 | 98 | 1010.6 |
| 20260509201010 | 53 | 241 | 1.7 | 2.6 | 0.01 | 0.47 | 0.47 | 97 | 1010.6 |
| 20260509200510 | 53 | 224 | 5.2 | 7.0 | 0.00 | 0.46 | 0.46 | 97 | 1010.6 |
| 20260509200006 | 54 | 237 | 2.6 | 2.6 | 0.03 | 0.46 | 0.46 | 97 | 1009.6 |
| 20260509195501 | 54 | 238 | 1.7 | 1.7 | 0.03 | 0.46 | 0.46 | 97 | 1009.6 |
| 20260509194955 | 54 | 236 | 4.3 | 4.3 | 0.03 | 0.46 | 0.46 | 97 | 1009.6 |
| 20260509194451 | 54 | 241 | 0.0 | 0.0 | 0.03 | 0.46 | 0.46 | 98 | 1009.6 |
| 20260509193948 | 54 | 240 | 0.0 | 0.0 | 0.03 | 0.46 | 0.46 | 98 | 1009.6 |
| 20260509193443 | 53 | 240 | 0.0 | 0.0 | 0.03 | 0.46 | 0.46 | 97 | 1009.6 |
| 20260509192939 | 53 | 225 | 0.0 | 0.0 | 0.02 | 0.45 | 0.45 | 97 | 1009.6 |
| 20260509192436 | 53 | 240 | 0.0 | 0.0 | 0.02 | 0.45 | 0.45 | 97 | 1009.6 |
| 20260509191931 | 53 | 225 | 2.6 | 2.6 | 0.02 | 0.45 | 0.45 | 97 | 1009.6 |
| 20260509191426 | 52 | 234 | 1.7 | 3.5 | 0.02 | 0.45 | 0.45 | 97 | 1010.6 |
| 20260509190923 | 52 | 291 | 1.7 | 1.7 | 0.01 | 0.44 | 0.44 | 96 | 1010.6 |
| 20260509190420 | 52 | 202 | 7.0 | 8.7 | 0.00 | 0.43 | 0.43 | 95 | 1010.6 |
| 20260509185918 | 52 | 223 | 2.6 | 4.3 | 0.11 | 0.42 | 0.42 | 95 | 1010.6 |
| 20260509185415 | 52 | 214 | 4.3 | 4.3 | 0.11 | 0.42 | 0.42 | 97 | 1010.6 |
| 20260509184911 | 52 | 234 | 11.3 | 12.2 | 0.10 | 0.41 | 0.41 | 96 | 1010.6 |
| 20260509184409 | 52 | 240 | 6.1 | 7.0 | 0.08 | 0.39 | 0.39 | 97 | 1010.6 |
| 20260509183905 | 52 | 225 | 3.5 | 5.2 | 0.07 | 0.38 | 0.38 | 98 | 1010.6 |
| 20260509183354 | 52 | 214 | 3.5 | 4.3 | 0.06 | 0.37 | 0.37 | 97 | 1010.6 |
| 20260509182850 | 52 | 214 | 7.0 | 7.0 | 0.05 | 0.36 | 0.36 | 97 | 1010.6 |
| 20260509182347 | 52 | 201 | 5.2 | 5.2 | 0.04 | 0.35 | 0.35 | 97 | 1010.6 |
| 20260509181845 | 52 | 224 | 7.0 | 8.7 | 0.03 | 0.34 | 0.34 | 98 | 1010.6 |
| 20260509181342 | 52 | 212 | 3.5 | 3.5 | 0.02 | 0.33 | 0.33 | 98 | 1010.6 |
| 20260509180839 | 52 | 217 | 6.1 | 7.0 | 0.02 | 0.33 | 0.33 | 97 | 1010.6 |
| 20260509180335 | 52 | 201 | 1.7 | 1.7 | 0.01 | 0.32 | 0.32 | 98 | 1010.6 |
| 20260509175832 | 52 | 278 | 2.6 | 2.6 | 0.08 | 0.31 | 0.31 | 97 | 1010.6 |
| 20260509175328 | 52 | 174 | 2.6 | 2.6 | 0.07 | 0.30 | 0.30 | 98 | 1010.6 |
| 20260509174824 | 52 | 222 | 4.3 | 4.3 | 0.06 | 0.29 | 0.29 | 98 | 1010.6 |
| 20260509174320 | 52 | 210 | 4.3 | 5.2 | 0.06 | 0.29 | 0.29 | 98 | 1010.6 |
| 20260509173816 | 52 | 227 | 0.9 | 0.9 | 0.05 | 0.28 | 0.28 | 98 | 1010.6 |
| 20260509173312 | 52 | 217 | 5.2 | 5.2 | 0.05 | 0.28 | 0.28 | 98 | 1010.6 |
| 20260509172808 | 52 | 221 | 4.3 | 4.3 | 0.04 | 0.27 | 0.27 | 98 | 1010.6 |
| 20260509172306 | 52 | 250 | 2.6 | 4.3 | 0.03 | 0.26 | 0.26 | 98 | 1010.6 |
| 20260509171800 | 52 | 223 | 0.0 | 0.0 | 0.02 | 0.25 | 0.25 | 98 | 1010.6 |
| 20260509171251 | 52 | 195 | 5.2 | 6.1 | 0.02 | 0.25 | 0.25 | 97 | 1010.6 |
| 20260509170747 | 52 | 238 | 5.2 | 7.0 | 0.01 | 0.24 | 0.24 | 97 | 1010.6 |
| 20260509170243 | 52 | 202 | 5.2 | 6.1 | 0.00 | 0.23 | 0.23 | 98 | 1010.6 |
| 20260509165742 | 52 | 212 | 2.6 | 2.6 | 0.05 | 0.23 | 0.23 | 97 | 1010.6 |
| 20260509165238 | 52 | 201 | 3.5 | 4.3 | 0.04 | 0.22 | 0.22 | 97 | 1010.6 |
| 20260509164734 | 52 | 210 | 5.2 | 6.1 | 0.04 | 0.22 | 0.22 | 97 | 1010.6 |
| 20260509164230 | 52 | 239 | 6.1 | 9.6 | 0.03 | 0.21 | 0.21 | 97 | 1010.6 |
| 20260509163727 | 52 | 186 | 4.3 | 5.2 | 0.03 | 0.21 | 0.21 | 98 | 1010.6 |
| 20260509163223 | 52 | 219 | 2.6 | 2.6 | 0.02 | 0.20 | 0.20 | 98 | 1010.6 |
| 20260509162721 | 52 | 224 | 0.9 | 4.3 | 0.02 | 0.20 | 0.20 | 98 | 1010.6 |
| 20260509162216 | 52 | 208 | 0.0 | 0.0 | 0.01 | 0.19 | 0.19 | 98 | 1010.6 |
| 20260509161712 | 52 | 224 | 0.0 | 0.0 | 0.00 | 0.18 | 0.18 | 97 | 1010.6 |
| 20260509161209 | 52 | 248 | 0.0 | 0.0 | 0.07 | 0.17 | 0.17 | 97 | 1011.7 |
| 20260509160704 | 52 | 227 | 0.0 | 0.0 | 0.07 | 0.17 | 0.17 | 98 | 1011.7 |
| 20260509160200 | 52 | 234 | 0.0 | 0.0 | 0.06 | 0.16 | 0.16 | 98 | 1011.7 |
| 20260509155656 | 52 | 246 | 0.0 | 0.0 | 0.05 | 0.15 | 0.15 | 97 | 1010.6 |
| 20260509155152 | 52 | 221 | 0.0 | 0.0 | 0.05 | 0.15 | 0.15 | 97 | 1010.6 |
| 20260509154648 | 52 | 222 | 0.0 | 0.0 | 0.04 | 0.14 | 0.14 | 97 | 1010.6 |
| 20260509154146 | 52 | 242 | 0.0 | 0.0 | 0.03 | 0.13 | 0.13 | 97 | 1010.6 |
| 20260509153642 | 52 | 224 | 0.0 | 0.0 | 0.02 | 0.12 | 0.12 | 96 | 1010.6 |
| 20260509153139 | 52 | 202 | 0.0 | 0.0 | 0.02 | 0.12 | 0.12 | 96 | 1010.6 |
| 20260509152634 | 52 | 202 | 0.0 | 0.0 | 0.01 | 0.11 | 0.11 | 96 | 1010.6 |
| 20260509152132 | 52 | 226 | 0.0 | 0.0 | 0.01 | 0.11 | 0.11 | 97 | 1010.6 |
| 20260509151628 | 52 | 226 | 0.0 | 0.0 | 0.01 | 0.11 | 0.11 | 97 | 1010.6 |
| 20260509151126 | 52 | 202 | 0.0 | 0.0 | 0.02 | 0.10 | 0.10 | 96 | 1010.6 |
| 20260509150624 | 52 | 225 | 0.0 | 0.0 | 0.02 | 0.10 | 0.10 | 96 | 1010.6 |
| 20260509150122 | 52 | 217 | 0.0 | 0.0 | 0.01 | 0.09 | 0.09 | 96 | 1010.6 |
| 20260509145618 | 53 | 246 | 0.0 | 0.0 | 0.01 | 0.09 | 0.09 | 96 | 1011.7 |
| 20260509145113 | 52 | 290 | 0.0 | 0.0 | 0.01 | 0.09 | 0.09 | 97 | 1011.7 |
| 20260509144610 | 52 | 290 | 0.0 | 0.0 | 0.01 | 0.09 | 0.09 | 97 | 1011.7 |
| 20260509144107 | 51 | 290 | 0.0 | 0.0 | 0.01 | 0.09 | 0.09 | 97 | 1010.6 |
| 20260509143604 | 51 | 291 | 0.0 | 0.0 | 0.00 | 0.08 | 0.08 | 98 | 1010.6 |
| 20260509143102 | 51 | 291 | 0.0 | 0.0 | 0.00 | 0.08 | 0.08 | 98 | 1010.6 |
| 20260509142556 | 51 | 290 | 0.0 | 0.0 | 0.00 | 0.08 | 0.08 | 98 | 1011.7 |
| 20260509142053 | 51 | 290 | 0.0 | 0.0 | 0.00 | 0.08 | 0.08 | 98 | 1011.7 |
| 20260509141549 | 51 | 212 | 0.0 | 0.0 | 0.00 | 0.08 | 0.08 | 99 | 1011.7 |
| 20260509141046 | 51 | 212 | 0.0 | 0.0 | 0.03 | 0.08 | 0.08 | 98 | 1011.7 |
| 20260509140543 | 51 | 210 | 0.0 | 0.0 | 0.03 | 0.08 | 0.08 | 98 | 1011.7 |
| 20260509140041 | 51 | 210 | 0.0 | 0.0 | 0.03 | 0.08 | 0.08 | 98 | 1011.7 |
| 20260509135538 | 50 | 212 | 0.0 | 0.0 | 0.02 | 0.07 | 0.07 | 98 | 1011.7 |
| 20260509135036 | 50 | 213 | 0.0 | 0.0 | 0.02 | 0.07 | 0.07 | 98 | 1011.7 |
| 20260509134532 | 50 | 212 | 0.0 | 0.0 | 0.02 | 0.07 | 0.07 | 98 | 1011.7 |
| 20260509134030 | 50 | 212 | 0.0 | 0.0 | 0.01 | 0.06 | 0.06 | 98 | 1011.7 |
| 20260509133526 | 50 | 326 | 0.0 | 0.0 | 0.01 | 0.06 | 0.06 | 98 | 1011.7 |
| 20260509133024 | 50 | 326 | 0.0 | 0.0 | 0.01 | 0.06 | 0.06 | 99 | 1011.7 |
| 20260509132522 | 50 | 6 | 0.0 | 0.0 | 0.01 | 0.06 | 0.06 | 99 | 1011.7 |
| 20260509132021 | 50 | 6 | 0.0 | 0.0 | 0.00 | 0.05 | 0.05 | 99 | 1011.7 |
| 20260509131516 | 49 | 7 | 0.0 | 0.0 | 0.00 | 0.05 | 0.05 | 99 | 1011.7 |
| 20260509131013 | 49 | 7 | 0.0 | 0.0 | 0.03 | 0.05 | 0.05 | 99 | 1010.6 |
| 20260509130509 | 49 | 7 | 0.0 | 0.0 | 0.02 | 0.04 | 0.04 | 99 | 1010.6 |
| 20260509130006 | 49 | 347 | 0.0 | 0.0 | 0.02 | 0.04 | 0.04 | 99 | 1010.6 |
| 20260509125502 | 49 | 330 | 0.0 | 0.0 | 0.02 | 0.04 | 0.04 | 99 | 1010.6 |
| 20260509124958 | 49 | 330 | 0.0 | 0.0 | 0.02 | 0.04 | 0.04 | 99 | 1010.6 |
| 20260509124455 | 49 | 330 | 0.0 | 0.0 | 0.01 | 0.03 | 0.03 | 99 | 1010.6 |
| 20260509123953 | 49 | 330 | 0.0 | 0.0 | 0.01 | 0.03 | 0.03 | 99 | 1010.6 |
| 20260509123450 | 49 | 330 | 0.0 | 0.0 | 0.01 | 0.03 | 0.03 | 99 | 1010.6 |
| 20260509122946 | 49 | 330 | 0.0 | 0.0 | 0.01 | 0.03 | 0.03 | 99 | 1010.6 |
| 20260509122443 | 49 | 330 | 0.0 | 0.0 | 0.01 | 0.03 | 0.03 | 99 | 1010.6 |
| 20260509121940 | 49 | 347 | 0.0 | 0.0 | 0.01 | 0.03 | 0.03 | 99 | 1010.6 |
| 20260509121436 | 49 | 346 | 0.0 | 0.0 | 0.01 | 0.03 | 0.03 | 99 | 1010.6 |
| 20260509120935 | 49 | 2 | 0.0 | 0.0 | 0.00 | 0.02 | 0.02 | 99 | 1010.6 |
| 20260509120432 | 48 | 2 | 0.0 | 0.0 | 0.00 | 0.02 | 0.02 | 99 | 1010.6 |
| 20260509115930 | 48 | 3 | 0.0 | 0.0 | 0.00 | 0.02 | 0.02 | 99 | 1010.6 |
| 20260509115427 | 48 | 7 | 0.0 | 0.0 | 0.00 | 0.02 | 0.02 | 99 | 1010.6 |
| 20260509114924 | 48 | 344 | 0.0 | 0.0 | 0.00 | 0.02 | 0.02 | 99 | 1010.6 |
| 20260509114423 | 48 | 344 | 0.0 | 0.0 | 0.00 | 0.02 | 0.02 | 99 | 1010.6 |
| 20260509113922 | 48 | 344 | 0.0 | 0.0 | 0.00 | 0.02 | 0.02 | 99 | 1010.6 |
| 20260509113419 | 48 | 344 | 0.0 | 0.0 | 0.00 | 0.02 | 0.02 | 99 | 1010.6 |
| 20260509112915 | 48 | 344 | 0.0 | 0.0 | 0.00 | 0.02 | 0.02 | 99 | 1010.6 |
| 20260509112412 | 48 | 344 | 0.0 | 0.0 | 0.00 | 0.02 | 0.02 | 99 | 1010.6 |
| 20260509111904 | 47 | 344 | 0.0 | 0.0 | 0.00 | 0.02 | 0.02 | 99 | 1010.6 |
| 20260509111401 | 47 | 344 | 0.0 | 0.0 | 0.00 | 0.02 | 0.02 | 99 | 1010.6 |
| 20260509110859 | 47 | 344 | 0.0 | 0.0 | 0.00 | 0.02 | 0.02 | 99 | 1010.6 |
| 20260509110354 | 47 | 344 | 0.0 | 0.0 | 0.00 | 0.02 | 0.02 | 99 | 1011.7 |
| 20260509105853 | 47 | 344 | 0.0 | 0.0 | 0.00 | 0.02 | 0.02 | 99 | 1011.7 |
| 20260509105351 | 47 | 343 | 0.0 | 0.0 | 0.00 | 0.02 | 0.02 | 99 | 1011.7 |
| 20260509104847 | 47 | 343 | 0.0 | 0.0 | 0.00 | 0.02 | 0.02 | 99 | 1010.6 |
| 20260509104343 | 47 | 345 | 0.0 | 0.0 | 0.00 | 0.02 | 0.02 | 99 | 1010.6 |
| 20260509103842 | 47 | 291 | 0.0 | 0.0 | 0.00 | 0.02 | 0.02 | 99 | 1010.6 |
| 20260509103339 | 47 | 25 | 0.0 | 0.0 | 0.00 | 0.02 | 0.02 | 99 | 1010.6 |
| 20260509102838 | 47 | 24 | 0.0 | 0.0 | 0.00 | 0.02 | 0.02 | 99 | 1010.6 |
| 20260509102334 | 47 | 24 | 0.0 | 0.0 | 0.00 | 0.02 | 0.02 | 99 | 1010.6 |
| 20260509101830 | 47 | 24 | 0.0 | 0.0 | 0.00 | 0.02 | 0.02 | 99 | 1011.7 |
| 20260509101326 | 47 | 24 | 0.0 | 0.0 | 0.00 | 0.02 | 0.02 | 99 | 1011.7 |
| 20260509100825 | 47 | 24 | 0.0 | 0.0 | 0.00 | 0.02 | 0.02 | 99 | 1011.7 |
| 20260509100321 | 47 | 24 | 0.0 | 0.0 | 0.00 | 0.02 | 0.02 | 99 | 1010.6 |
| 20260509095818 | 47 | 24 | 0.0 | 0.0 | 0.00 | 0.02 | 0.02 | 99 | 1010.6 |
| 20260509095315 | 47 | 24 | 0.0 | 0.0 | 0.00 | 0.02 | 0.02 | 99 | 1010.6 |
| 20260509094812 | 47 | 24 | 0.0 | 0.0 | 0.00 | 0.02 | 0.02 | 99 | 1011.7 |
| 20260509094309 | 47 | 24 | 0.0 | 0.0 | 0.00 | 0.02 | 0.02 | 99 | 1011.7 |
| 20260509093807 | 47 | 24 | 0.0 | 0.0 | 0.00 | 0.02 | 0.02 | 99 | 1011.7 |
| 20260509093304 | 47 | 70 | 0.0 | 0.0 | 0.00 | 0.02 | 0.02 | 99 | 1010.6 |
| 20260509092802 | 47 | 70 | 0.0 | 0.0 | 0.00 | 0.02 | 0.02 | 99 | 1010.6 |
| 20260509092300 | 47 | 70 | 0.0 | 0.0 | 0.00 | 0.02 | 0.02 | 99 | 1010.6 |
| 20260509091757 | 47 | 70 | 0.0 | 0.0 | 0.00 | 0.02 | 0.02 | 99 | 1011.7 |
| 20260509091254 | 47 | 70 | 0.0 | 0.0 | 0.00 | 0.02 | 0.02 | 99 | 1011.7 |
| 20260509090751 | 47 | 70 | 0.0 | 0.0 | 0.00 | 0.02 | 0.02 | 99 | 1011.7 |
| 20260509090248 | 47 | 70 | 0.0 | 0.0 | 0.00 | 0.02 | 0.02 | 99 | 1011.7 |
| 20260509085746 | 47 | 70 | 0.0 | 0.0 | 0.00 | 0.02 | 0.02 | 99 | 1011.7 |
| 20260509085243 | 47 | 70 | 0.0 | 0.0 | 0.00 | 0.02 | 0.02 | 99 | 1011.7 |
| 20260509084739 | 47 | 70 | 0.0 | 0.0 | 0.00 | 0.02 | 0.02 | 99 | 1011.7 |
| 20260509084236 | 47 | 70 | 0.0 | 0.0 | 0.00 | 0.02 | 0.02 | 99 | 1011.7 |
| 20260509083734 | 47 | 70 | 0.0 | 0.0 | 0.00 | 0.02 | 0.02 | 99 | 1011.7 |
| 20260509083231 | 47 | 197 | 0.0 | 0.0 | 0.00 | 0.02 | 0.02 | 99 | 1011.7 |
| 20260509082727 | 47 | 263 | 0.0 | 0.0 | 0.00 | 0.02 | 0.02 | 99 | 1011.7 |
| 20260509082224 | 47 | 263 | 0.0 | 0.0 | 0.00 | 0.02 | 0.02 | 99 | 1011.7 |
| 20260509081721 | 47 | 263 | 0.0 | 0.0 | 0.00 | 0.02 | 0.02 | 99 | 1011.7 |
| 20260509081218 | 47 | 263 | 0.0 | 0.0 | 0.00 | 0.02 | 0.02 | 99 | 1011.7 |
| 20260509080716 | 47 | 0 | 0.0 | 0.0 | 0.00 | 0.02 | 0.02 | 99 | 1011.7 |
| 20260509080214 | 47 | 263 | 0.0 | 0.0 | 0.01 | 0.02 | 0.02 | 99 | 1011.7 |
| 20260509075712 | 47 | 263 | 0.0 | 0.0 | 0.01 | 0.02 | 0.02 | 99 | 1011.7 |
| 20260509075209 | 47 | 263 | 0.0 | 0.0 | 0.01 | 0.02 | 0.02 | 99 | 1011.7 |
| 20260509074706 | 47 | 263 | 0.0 | 0.0 | 0.01 | 0.02 | 0.02 | 99 | 1011.7 |
| 20260509074203 | 47 | 263 | 0.0 | 0.0 | 0.01 | 0.02 | 0.02 | 99 | 1011.7 |
| 20260509073659 | 47 | 263 | 0.0 | 0.0 | 0.01 | 0.02 | 0.02 | 99 | 1011.7 |
| 20260509073156 | 47 | 263 | 0.0 | 0.0 | 0.01 | 0.02 | 0.02 | 99 | 1011.7 |
| 20260509072653 | 47 | 263 | 0.0 | 0.0 | 0.01 | 0.02 | 0.02 | 99 | 1011.7 |
| 20260509072149 | 47 | 263 | 0.0 | 0.0 | 0.01 | 0.02 | 0.02 | 99 | 1011.7 |
| 20260509071646 | 47 | 263 | 0.0 | 0.0 | 0.01 | 0.02 | 0.02 | 99 | 1011.7 |
| 20260509071143 | 47 | 263 | 0.0 | 0.0 | 0.01 | 0.02 | 0.02 | 99 | 1011.7 |
| 20260509070640 | 47 | 263 | 0.0 | 0.0 | 0.00 | 0.01 | 0.01 | 99 | 1011.7 |
| 20260509070136 | 47 | 263 | 0.0 | 0.0 | 0.00 | 0.01 | 0.01 | 99 | 1011.7 |
| 20260509065632 | 47 | 248 | 0.0 | 0.0 | 0.00 | 0.01 | 0.01 | 99 | 1011.7 |
| 20260509065128 | 47 | 248 | 0.0 | 0.0 | 0.00 | 0.01 | 0.01 | 99 | 1011.7 |
| 20260509064625 | 47 | 248 | 0.0 | 0.0 | 0.00 | 0.01 | 0.01 | 99 | 1012.8 |
| 20260509064118 | 47 | 248 | 0.0 | 0.0 | 0.00 | 0.01 | 0.01 | 99 | 1012.8 |
| 20260509063615 | 47 | 248 | 0.0 | 0.0 | 0.00 | 0.01 | 0.01 | 99 | 1012.8 |
| 20260509063111 | 47 | 248 | 0.0 | 0.0 | 0.00 | 0.01 | 0.01 | 99 | 1012.8 |
| 20260509062608 | 47 | 248 | 0.0 | 0.0 | 0.00 | 0.01 | 0.01 | 99 | 1012.8 |
| 20260509062105 | 47 | 248 | 0.0 | 0.0 | 0.00 | 0.01 | 0.01 | 99 | 1012.8 |
| 20260509061602 | 47 | 248 | 0.0 | 0.0 | 0.00 | 0.01 | 0.01 | 99 | 1012.8 |
| 20260509061059 | 47 | 248 | 0.0 | 0.0 | 0.00 | 0.01 | 0.01 | 99 | 1012.8 |
| 20260509060557 | 47 | 248 | 0.0 | 0.0 | 0.00 | 0.01 | 0.01 | 99 | 1012.8 |
| 20260509060052 | 47 | 248 | 0.0 | 0.0 | 0.00 | 0.01 | 0.01 | 99 | 1012.8 |
| 20260509055548 | 47 | 227 | 0.0 | 0.0 | 0.00 | 0.01 | 0.01 | 99 | 1012.8 |
| 20260509055044 | 47 | 227 | 0.0 | 0.0 | 0.00 | 0.01 | 0.01 | 99 | 1012.8 |
| 20260509054541 | 47 | 227 | 0.0 | 0.0 | 0.00 | 0.01 | 0.01 | 99 | 1012.8 |
| 20260509054039 | 47 | 227 | 0.0 | 0.0 | 0.00 | 0.01 | 0.01 | 99 | 1012.8 |
| 20260509053538 | 47 | 227 | 0.0 | 0.0 | 0.00 | 0.01 | 0.01 | 99 | 1012.8 |
| 20260509053034 | 47 | 227 | 0.0 | 0.0 | 0.00 | 0.01 | 0.01 | 99 | 1012.8 |
| 20260509052532 | 47 | 227 | 0.0 | 0.0 | 0.00 | 0.01 | 0.01 | 99 | 1012.8 |
| 20260509052029 | 47 | 227 | 0.0 | 0.0 | 0.00 | 0.01 | 0.01 | 99 | 1012.8 |
| 20260509051527 | 47 | 227 | 0.0 | 0.0 | 0.00 | 0.01 | 0.01 | 99 | 1012.8 |
| 20260509051024 | 47 | 227 | 0.0 | 0.0 | 0.00 | 0.01 | 0.01 | 99 | 1012.8 |
| 20260509050520 | 47 | 227 | 0.0 | 0.0 | 0.00 | 0.01 | 0.01 | 99 | 1012.8 |
| 20260509050011 | 47 | 250 | 0.0 | 0.0 | 0.01 | 0.01 | 0.01 | 99 | 1012.8 |
| 20260509045509 | 47 | 250 | 0.0 | 0.0 | 0.01 | 0.01 | 0.01 | 99 | 1012.8 |
| 20260509045005 | 47 | 250 | 0.0 | 0.0 | 0.01 | 0.01 | 0.01 | 99 | 1012.8 |
| 20260509044503 | 47 | 250 | 0.0 | 0.0 | 0.01 | 0.01 | 0.01 | 99 | 1011.7 |
| 20260509044000 | 47 | 250 | 0.0 | 0.0 | 0.01 | 0.01 | 0.01 | 99 | 1011.7 |
| 20260509043455 | 47 | 250 | 0.0 | 0.0 | 0.01 | 0.01 | 0.01 | 99 | 1011.7 |
| 20260509042951 | 47 | 250 | 0.0 | 0.0 | 0.01 | 0.01 | 0.01 | 99 | 1012.8 |
| 20260509042449 | 47 | 245 | 0.0 | 0.0 | 0.01 | 0.01 | 0.01 | 99 | 1012.8 |
| 20260509041944 | 46 | 245 | 0.0 | 0.0 | 0.00 | 0.00 | 0.00 | 99 | 1012.8 |
| 20260509041441 | 46 | 245 | 0.0 | 0.0 | 0.01 | 0.06 | 0.06 | 99 | 1012.8 |
| 20260509040940 | 46 | 245 | 0.0 | 0.0 | 0.01 | 0.06 | 0.06 | 99 | 1012.8 |
| 20260509040437 | 46 | 245 | 0.0 | 0.0 | 0.01 | 0.06 | 0.06 | 99 | 1012.8 |
| 20260509035934 | 47 | 245 | 0.0 | 0.0 | 0.01 | 0.06 | 0.06 | 99 | 1012.8 |
| 20260509035431 | 47 | 245 | 0.0 | 0.0 | 0.01 | 0.06 | 0.06 | 99 | 1012.8 |
| 20260509034928 | 47 | 245 | 0.0 | 0.0 | 0.01 | 0.06 | 0.06 | 99 | 1012.8 |
| 20260509034425 | 47 | 245 | 0.0 | 0.0 | 0.01 | 0.06 | 0.06 | 99 | 1012.8 |
| 20260509033922 | 47 | 245 | 0.0 | 0.0 | 0.01 | 0.06 | 0.06 | 99 | 1012.8 |
| 20260509033419 | 47 | 245 | 0.0 | 0.0 | 0.01 | 0.06 | 0.06 | 99 | 1012.8 |
| 20260509032915 | 46 | 245 | 0.0 | 0.0 | 0.01 | 0.06 | 0.06 | 99 | 1012.8 |
| 20260509032413 | 46 | 240 | 0.0 | 0.0 | 0.01 | 0.06 | 0.06 | 99 | 1012.8 |
| 20260509031911 | 46 | 240 | 0.0 | 0.0 | 0.00 | 0.05 | 0.05 | 99 | 1012.8 |
| 20260509031408 | 46 | 240 | 0.0 | 0.0 | 0.00 | 0.05 | 0.05 | 99 | 1012.8 |
| 20260509030905 | 46 | 240 | 0.0 | 0.0 | 0.00 | 0.05 | 0.05 | 99 | 1012.8 |
| 20260509030404 | 46 | 240 | 0.0 | 0.0 | 0.00 | 0.05 | 0.05 | 99 | 1012.8 |
| 20260509025900 | 46 | 240 | 0.0 | 0.0 | 0.00 | 0.05 | 0.05 | 99 | 1012.8 |
| 20260509025356 | 46 | 240 | 0.0 | 0.0 | 0.00 | 0.05 | 0.05 | 99 | 1012.8 |
| 20260509024851 | 46 | 240 | 0.0 | 0.0 | 0.00 | 0.05 | 0.05 | 99 | 1012.8 |
| 20260509024347 | 46 | 240 | 0.0 | 0.0 | 0.00 | 0.05 | 0.05 | 99 | 1012.8 |
| 20260509023844 | 46 | 240 | 0.0 | 0.0 | 0.00 | 0.05 | 0.05 | 99 | 1012.8 |
| 20260509023342 | 46 | 240 | 0.0 | 0.0 | 0.00 | 0.05 | 0.05 | 99 | 1012.8 |
| 20260509022833 | 46 | 240 | 0.0 | 0.0 | 0.00 | 0.05 | 0.05 | 99 | 1012.8 |
| 20260509022330 | 46 | 240 | 0.0 | 0.0 | 0.00 | 0.05 | 0.05 | 99 | 1012.8 |
| 20260509021827 | 46 | 240 | 0.0 | 0.0 | 0.00 | 0.05 | 0.05 | 99 | 1012.8 |
| 20260509021324 | 46 | 240 | 0.0 | 0.0 | 0.00 | 0.05 | 0.05 | 99 | 1012.8 |
| 20260509020821 | 46 | 240 | 0.0 | 0.0 | 0.00 | 0.05 | 0.05 | 99 | 1012.8 |
| 20260509020319 | 47 | 240 | 0.0 | 0.0 | 0.00 | 0.05 | 0.05 | 99 | 1012.8 |
| 20260509015817 | 47 | 240 | 0.0 | 0.0 | 0.00 | 0.05 | 0.05 | 99 | 1012.8 |
| 20260509015314 | 47 | 240 | 0.0 | 0.0 | 0.00 | 0.05 | 0.05 | 99 | 1012.8 |
| 20260509014811 | 47 | 240 | 0.0 | 0.0 | 0.00 | 0.05 | 0.05 | 99 | 1012.8 |
| 20260509014308 | 48 | 240 | 0.0 | 0.0 | 0.00 | 0.05 | 0.05 | 99 | 1012.8 |
| 20260509013804 | 48 | 240 | 0.0 | 0.0 | 0.00 | 0.05 | 0.05 | 99 | 1012.8 |
| 20260509013300 | 48 | 240 | 0.0 | 0.0 | 0.00 | 0.05 | 0.05 | 99 | 1012.8 |
| 20260509012756 | 49 | 240 | 0.0 | 0.0 | 0.00 | 0.05 | 0.05 | 98 | 1012.8 |
| 20260509012253 | 49 | 240 | 0.0 | 0.0 | 0.00 | 0.05 | 0.05 | 98 | 1012.8 |
| 20260509011751 | 49 | 240 | 0.0 | 0.0 | 0.00 | 0.05 | 0.05 | 98 | 1012.8 |
| 20260509011248 | 49 | 240 | 0.0 | 0.0 | 0.00 | 0.05 | 0.05 | 97 | 1012.8 |
| 20260509010746 | 49 | 240 | 0.0 | 0.0 | 0.00 | 0.05 | 0.05 | 97 | 1012.8 |
| 20260509010242 | 49 | 240 | 0.0 | 0.0 | 0.00 | 0.05 | 0.05 | 97 | 1012.8 |
| 20260509005740 | 49 | 240 | 0.0 | 0.0 | 0.00 | 0.05 | 0.05 | 97 | 1012.8 |
| 20260509005238 | 49 | 240 | 0.0 | 0.0 | 0.00 | 0.05 | 0.05 | 97 | 1012.8 |
| 20260509004732 | 49 | 240 | 0.0 | 0.0 | 0.00 | 0.05 | 0.05 | 96 | 1012.8 |
| 20260509004230 | 49 | 240 | 0.0 | 0.0 | 0.00 | 0.05 | 0.05 | 96 | 1012.8 |
| 20260509003728 | 49 | 240 | 0.0 | 0.0 | 0.00 | 0.05 | 0.05 | 96 | 1011.7 |
| 20260509003225 | 49 | 240 | 0.0 | 0.0 | 0.00 | 0.05 | 0.05 | 96 | 1011.7 |
| 20260509002722 | 49 | 240 | 0.0 | 0.0 | 0.00 | 0.05 | 0.05 | 96 | 1011.7 |
| 20260509002219 | 49 | 240 | 0.0 | 0.0 | 0.00 | 0.05 | 0.05 | 96 | 1011.7 |
| 20260509001711 | 49 | 240 | 0.0 | 0.0 | 0.00 | 0.05 | 0.05 | 96 | 1011.7 |
| 20260509001206 | 49 | 240 | 0.0 | 0.0 | 0.00 | 0.05 | 0.05 | 96 | 1011.7 |
| 20260509000704 | 50 | 240 | 0.0 | 0.0 | 0.01 | 0.05 | 0.05 | 96 | 1011.7 |
| 20260509000156 | 50 | 240 | 0.0 | 0.0 | 0.01 | 0.05 | 0.05 | 95 | 1011.7 |
| 20260508235653 | 50 | 240 | 0.0 | 0.0 | 0.01 | 0.05 | 0.05 | 95 | 1011.7 |
| 20260508235149 | 50 | 240 | 0.0 | 0.0 | 0.01 | 0.05 | 0.05 | 95 | 1011.7 |
| 20260508234647 | 50 | 240 | 0.0 | 0.0 | 0.01 | 0.05 | 0.05 | 95 | 1011.7 |
| 20260508234143 | 50 | 240 | 0.0 | 0.0 | 0.01 | 0.05 | 0.05 | 94 | 1011.7 |
| 20260508233643 | 50 | 240 | 0.0 | 0.0 | 0.01 | 0.05 | 0.05 | 93 | 1011.7 |
| 20260508233140 | 51 | 240 | 0.0 | 0.0 | 0.01 | 0.05 | 0.05 | 92 | 1011.7 |
| 20260508232637 | 51 | 240 | 0.0 | 0.0 | 0.00 | 0.04 | 0.04 | 91 | 1011.7 |
| 20260508232134 | 51 | 240 | 0.0 | 0.0 | 0.00 | 0.04 | 0.04 | 89 | 1011.7 |
| 20260508231632 | 51 | 240 | 0.0 | 0.0 | 0.00 | 0.04 | 0.04 | 89 | 1011.7 |
| 20260508231128 | 52 | 240 | 0.0 | 0.0 | 0.00 | 0.04 | 0.04 | 88 | 1011.7 |
| 20260508230624 | 52 | 240 | 0.0 | 0.0 | 0.01 | 0.04 | 0.04 | 85 | 1011.7 |
| 20260508230121 | 53 | 240 | 0.0 | 0.0 | 0.01 | 0.04 | 0.04 | 85 | 1011.7 |
| 20260508225620 | 53 | 240 | 0.0 | 0.0 | 0.00 | 0.03 | 0.03 | 81 | 1011.7 |
| 20260508225115 | 54 | 239 | 0.0 | 0.0 | 0.00 | 0.03 | 0.03 | 78 | 1011.7 |
| 20260508224613 | 54 | 223 | 0.0 | 0.0 | 0.00 | 0.03 | 0.03 | 75 | 1011.7 |
| 20260508224110 | 55 | 225 | 0.0 | 0.0 | 0.00 | 0.03 | 0.03 | 74 | 1011.7 |
| 20260508223608 | 55 | 225 | 0.0 | 0.0 | 0.00 | 0.03 | 0.03 | 71 | 1011.7 |
| 20260508223105 | 56 | 227 | 0.0 | 0.0 | 0.00 | 0.03 | 0.03 | 69 | 1011.7 |
| 20260508222602 | 56 | 227 | 0.0 | 0.0 | 0.00 | 0.03 | 0.03 | 67 | 1011.7 |
| 20260508222059 | 56 | 227 | 0.0 | 0.0 | 0.00 | 0.03 | 0.03 | 68 | 1010.6 |
| 20260508221555 | 56 | 222 | 0.0 | 0.0 | 0.00 | 0.03 | 0.03 | 66 | 1010.6 |
| 20260508221052 | 56 | 222 | 0.0 | 0.0 | 0.00 | 0.03 | 0.03 | 66 | 1010.6 |
| 20260508220548 | 56 | 222 | 0.0 | 0.0 | 0.00 | 0.03 | 0.03 | 68 | 1011.7 |
| 20260508220044 | 56 | 222 | 0.0 | 0.0 | 0.00 | 0.03 | 0.03 | 69 | 1011.7 |
| 20260508215542 | 56 | 222 | 0.0 | 0.0 | 0.00 | 0.03 | 0.03 | 67 | 1011.7 |
| 20260508215038 | 56 | 224 | 0.0 | 0.0 | 0.00 | 0.03 | 0.03 | 68 | 1011.7 |
| 20260508214536 | 56 | 224 | 0.0 | 0.0 | 0.00 | 0.03 | 0.03 | 66 | 1011.7 |
| 20260508214032 | 56 | 238 | 0.0 | 0.0 | 0.00 | 0.03 | 0.03 | 67 | 1011.7 |
| 20260508213530 | 56 | 259 | 0.0 | 0.0 | 0.00 | 0.03 | 0.03 | 65 | 1011.7 |
| 20260508213025 | 56 | 225 | 0.0 | 0.0 | 0.00 | 0.03 | 0.03 | 66 | 1011.7 |